Time;durP1;ratioP1;P1;durP2;ratioP2;P2;SDS_P1;SDS_P2;PMS_P1;PMS_P2;Temp;Humidity;BMP_temperature;BMP_pressure;BME280_temperature;BME280_humidity;BME280_pressure;Samples;Min_cycle;Max_cycle;Signal;HPM_P1;HPM_P2
2022/10/25 00:01:45;;;;;;;13.27;6.63;;;16.30;76.80;;;;;;5070474;28;20218;-75
2022/10/25 00:04:14;;;;;;;15.33;6.67;;;16.20;76.80;;;;;;5062761;28;20655;-75
2022/10/25 00:06:43;;;;;;;9.77;5.97;;;16.20;76.80;;;;;;5074798;28;20671;-75
2022/10/25 00:09:11;;;;;;;12.60;6.47;;;16.20;76.80;;;;;;5074327;28;20271;-74
2022/10/25 00:11:40;;;;;;;11.93;6.80;;;16.20;76.80;;;;;;5071830;28;20644;-74
2022/10/25 00:14:08;;;;;;;10.67;6.20;;;16.20;76.80;;;;;;5035327;28;20205;-75
2022/10/25 00:16:38;;;;;;;13.37;6.70;;;16.20;76.80;;;;;;5072097;28;20198;-74
2022/10/25 00:19:07;;;;;;;13.83;6.90;;;16.20;76.90;;;;;;5068491;28;20195;-75
2022/10/25 00:21:35;;;;;;;13.03;6.53;;;16.10;77.00;;;;;;5066768;28;20309;-74
2022/10/25 00:24:03;;;;;;;16.77;6.63;;;16.10;77.10;;;;;;5071110;28;20206;-75
2022/10/25 00:26:31;;;;;;;13.43;6.40;;;16.10;77.20;;;;;;5076160;28;20278;-74
2022/10/25 00:29:00;;;;;;;11.70;6.40;;;16.10;77.20;;;;;;5068418;28;20194;-75
2022/10/25 00:31:28;;;;;;;19.80;7.07;;;16.10;77.20;;;;;;5069678;28;20228;-75
2022/10/25 00:33:58;;;;;;;10.63;6.47;;;16.10;77.20;;;;;;5070708;28;20189;-75
2022/10/25 00:36:27;;;;;;;11.87;6.50;;;16.10;78.00;;;;;;5060963;28;20324;-75
2022/10/25 00:38:57;;;;;;;12.07;6.90;;;16.00;77.20;;;;;;5068493;28;20233;-75
2022/10/25 00:41:28;;;;;;;13.67;6.80;;;16.00;77.20;;;;;;5065210;28;20268;-75
2022/10/25 00:44:17;;;;;;;14.63;6.77;;;16.00;77.30;;;;;;5068323;28;20217;-75
2022/10/25 00:46:45;;;;;;;15.37;6.80;;;16.00;77.30;;;;;;5066390;28;20233;-74
2022/10/25 00:49:18;;;;;;;14.37;6.17;;;16.00;77.30;;;;;;5073029;28;20308;-74
2022/10/25 00:51:50;;;;;;;10.67;6.77;;;16.00;77.40;;;;;;5065681;28;20293;-74
2022/10/25 00:54:23;;;;;;;13.30;6.60;;;16.00;77.50;;;;;;5065897;28;20226;-75
2022/10/25 00:56:54;;;;;;;12.90;6.90;;;16.00;77.50;;;;;;5067096;28;20190;-74
2022/10/25 00:59:27;;;;;;;11.73;6.53;;;16.00;77.50;;;;;;5074953;28;20229;-74
2022/10/25 01:01:56;;;;;;;19.13;7.80;;;16.00;77.50;;;;;;5067926;28;20293;-74
2022/10/25 01:04:29;;;;;;;13.93;6.63;;;16.00;77.50;;;;;;5072444;28;20651;-74
2022/10/25 01:06:57;;;;;;;14.63;6.63;;;16.00;77.50;;;;;;5078264;28;20217;-74
2022/10/25 01:09:28;;;;;;;16.90;6.97;;;16.00;77.60;;;;;;5070006;28;20256;-75
2022/10/25 01:11:56;;;;;;;18.10;7.40;;;15.90;77.60;;;;;;5069036;28;20528;-74
2022/10/25 01:14:25;;;;;;;16.93;7.37;;;15.90;78.40;;;;;;5072916;28;20217;-74
2022/10/25 01:17:12;;;;;;;11.40;6.20;;;15.90;78.20;;;;;;5068390;28;20659;-74
2022/10/25 01:20:04;;;;;;;14.63;7.00;;;15.90;78.20;;;;;;5079885;28;20603;-74
2022/10/25 01:22:38;;;;;;;13.13;7.20;;;15.90;78.20;;;;;;5069521;28;20289;-74
2022/10/25 01:25:22;;;;;;;13.30;7.80;;;15.90;78.30;;;;;;5063197;28;20276;-75
2022/10/25 01:28:12;;;;;;;15.17;8.23;;;15.80;78.40;;;;;;5066451;28;20229;-74
2022/10/25 01:31:23;;;;;;;14.40;7.73;;;15.80;78.50;;;;;;5067179;28;20469;-75
2022/10/25 01:33:57;;;;;;;17.70;7.47;;;15.80;78.60;;;;;;5049766;28;20233;-76
2022/10/25 01:36:39;;;;;;;12.73;7.93;;;15.80;78.50;;;;;;5067039;28;20255;-75
2022/10/25 01:39:12;;;;;;;16.67;8.37;;;15.80;78.70;;;;;;5070877;28;20190;-74
2022/10/25 01:41:53;;;;;;;20.20;9.40;;;15.80;78.60;;;;;;5072286;28;20202;-74
2022/10/25 01:44:32;;;;;;;18.00;8.90;;;15.80;79.40;;;;;;5069924;28;20226;-75
2022/10/25 01:47:04;;;;;;;16.20;8.77;;;15.80;78.60;;;;;;5069831;28;20191;-74
2022/10/25 01:49:41;;;;;;;15.87;8.33;;;15.80;78.60;;;;;;5067984;28;20221;-74
2022/10/25 01:52:09;;;;;;;18.07;8.47;;;15.80;78.60;;;;;;5062381;28;20267;-75
2022/10/25 01:54:38;;;;;;;17.83;9.70;;;15.80;78.60;;;;;;5071258;28;20761;-74
2022/10/25 01:57:21;;;;;;;16.17;8.87;;;15.80;78.60;;;;;;5071667;28;20199;-74
2022/10/25 02:00:03;;;;;;;21.27;9.30;;;15.80;78.70;;;;;;5069495;28;20221;-75
2022/10/25 02:02:44;;;;;;;19.17;8.90;;;15.80;78.70;;;;;;5077506;28;20202;-74
2022/10/25 02:05:21;;;;;;;16.90;8.90;;;15.80;78.80;;;;;;5073568;28;20558;-75
2022/10/25 02:08:00;;;;;;;17.17;9.40;;;15.80;78.80;;;;;;5071096;28;20236;-74
2022/10/25 02:10:35;;;;;;;15.60;8.20;;;15.80;78.70;;;;;;5070554;28;20233;-74
2022/10/25 02:13:10;;;;;;;14.63;8.80;;;15.80;78.90;;;;;;5072174;28;20257;-75
2022/10/25 02:15:41;;;;;;;16.33;8.67;;;15.80;78.90;;;;;;5069494;28;20229;-74
2022/10/25 02:18:15;;;;;;;18.77;9.27;;;15.70;79.00;;;;;;5073508;28;20669;-74
2022/10/25 02:20:47;;;;;;;17.57;8.73;;;15.70;79.10;;;;;;5082841;28;20192;-74
2022/10/25 02:23:18;;;;;;;17.67;8.93;;;15.70;79.10;;;;;;5070287;28;20679;-74
2022/10/25 02:25:49;;;;;;;15.73;8.43;;;15.70;79.10;;;;;;5071752;28;20191;-75
2022/10/25 02:28:22;;;;;;;22.60;9.73;;;15.70;79.10;;;;;;5073589;28;20190;-74
2022/10/25 02:30:51;;;;;;;17.23;8.90;;;15.70;79.10;;;;;;5070721;28;20281;-75
2022/10/25 02:33:23;;;;;;;18.63;9.37;;;15.70;79.10;;;;;;5072765;28;20273;-75
2022/10/25 02:36:14;;;;;;;15.47;7.63;;;15.70;79.20;;;;;;5068984;28;20194;-74
2022/10/25 02:38:44;;;;;;;14.67;8.23;;;15.70;79.40;;;;;;5073673;28;20214;-75
2022/10/25 02:41:12;;;;;;;16.93;9.20;;;15.60;79.20;;;;;;5071358;28;20289;-75
2022/10/25 02:43:41;;;;;;;20.63;9.90;;;15.60;79.30;;;;;;5072327;28;20341;-75
2022/10/25 02:46:11;;;;;;;15.13;8.40;;;15.60;79.30;;;;;;5067804;28;20697;-74
2022/10/25 02:48:41;;;;;;;22.07;10.40;;;15.60;79.30;;;;;;5071162;28;20221;-75
2022/10/25 02:51:10;;;;;;;19.20;9.93;;;15.60;79.30;;;;;;5068412;28;20222;-75
2022/10/25 02:53:39;;;;;;;27.47;10.67;;;15.50;79.20;;;;;;5068244;28;20306;-75
2022/10/25 02:56:10;;;;;;;22.70;11.43;;;15.50;79.20;;;;;;5073766;28;20229;-75
2022/10/25 02:58:41;;;;;;;22.83;9.87;;;15.50;79.20;;;;;;5069350;28;20213;-75
2022/10/25 03:01:09;;;;;;;17.77;9.83;;;15.50;79.30;;;;;;5069369;28;20231;-75
2022/10/25 03:03:38;;;;;;;20.17;10.17;;;15.50;79.20;;;;;;5076866;28;20260;-75
2022/10/25 03:06:09;;;;;;;22.47;9.70;;;15.50;79.30;;;;;;5073732;28;20222;-75
2022/10/25 03:08:39;;;;;;;27.03;10.43;;;15.50;79.40;;;;;;5070467;28;20264;-74
2022/10/25 03:11:08;;;;;;;19.47;10.53;;;15.40;79.40;;;;;;5072681;28;20285;-74
2022/10/25 03:13:36;;;;;;;22.07;9.53;;;15.40;79.40;;;;;;5073361;28;20604;-75
2022/10/25 03:16:06;;;;;;;23.23;10.50;;;15.40;79.50;;;;;;5071997;28;20226;-74
2022/10/25 03:18:34;;;;;;;18.80;10.90;;;15.40;79.70;;;;;;5066141;28;20697;-75
2022/10/25 03:21:04;;;;;;;22.63;10.03;;;15.40;79.70;;;;;;5062663;28;20194;-75
2022/10/25 03:23:34;;;;;;;20.57;10.87;;;15.30;79.70;;;;;;5078891;28;20310;-75
2022/10/25 03:26:02;;;;;;;20.67;11.30;;;15.30;79.80;;;;;;5079245;28;20230;-75
2022/10/25 03:28:31;;;;;;;26.33;10.40;;;15.30;79.80;;;;;;5069513;28;20234;-75
2022/10/25 03:30:59;;;;;;;20.17;10.30;;;15.30;79.80;;;;;;5071608;28;20213;-75
2022/10/25 03:33:28;;;;;;;20.80;10.53;;;15.20;79.80;;;;;;5065673;28;20202;-76
2022/10/25 03:36:01;;;;;;;26.67;11.70;;;15.20;79.90;;;;;;5071515;28;20624;-75
2022/10/25 03:38:29;;;;;;;21.47;11.30;;;15.20;80.80;;;;;;5070812;28;20651;-75
2022/10/25 03:40:59;;;;;;;18.93;10.37;;;15.20;80.00;;;;;;5078228;28;20231;-75
2022/10/25 03:43:30;;;;;;;23.85;12.00;;;15.20;80.00;;;;;;5070703;28;20533;-75
2022/10/25 03:45:58;;;;;;;25.50;11.63;;;15.20;80.90;;;;;;5071008;28;20717;-75
2022/10/25 03:48:26;;;;;;;23.30;10.70;;;15.20;80.70;;;;;;5064900;28;20289;-74
2022/10/25 03:50:55;;;;;;;24.00;10.90;;;15.10;80.50;;;;;;5073572;28;20345;-74
2022/10/25 03:53:23;;;;;;;28.13;11.47;;;15.10;80.60;;;;;;5069137;28;20260;-74
2022/10/25 03:55:51;;;;;;;21.40;11.67;;;15.10;80.60;;;;;;5070661;28;20218;-74
2022/10/25 03:58:21;;;;;;;23.70;10.60;;;15.10;80.60;;;;;;5065761;28;20544;-74
2022/10/25 04:00:49;;;;;;;26.23;12.00;;;15.10;80.60;;;;;;5064511;28;20230;-74
2022/10/25 04:03:17;;;;;;;25.30;10.93;;;15.10;80.80;;;;;;5073348;28;20575;-75
2022/10/25 04:05:46;;;;;;;19.90;10.73;;;15.10;80.90;;;;;;5072649;28;20252;-75
2022/10/25 04:08:14;;;;;;;25.13;12.18;;;15.00;80.90;;;;;;5067219;28;20463;-75
2022/10/25 04:10:42;;;;;;;31.87;11.37;;;15.00;81.00;;;;;;5071908;28;20245;-74
2022/10/25 04:13:10;;;;;;;25.00;11.40;;;15.00;81.00;;;;;;5065854;28;20190;-76
2022/10/25 04:15:40;;;;;;;26.60;11.90;;;15.00;81.10;;;;;;5066282;28;20218;-75
2022/10/25 04:18:08;;;;;;;24.17;11.30;;;15.00;81.00;;;;;;5074516;28;20194;-74
2022/10/25 04:20:37;;;;;;;26.52;12.65;;;15.00;81.00;;;;;;5074004;28;20458;-75
2022/10/25 04:23:05;;;;;;;25.07;11.97;;;15.00;81.20;;;;;;5068419;28;20247;-77
2022/10/25 04:25:33;;;;;;;20.40;11.43;;;15.00;81.30;;;;;;5069451;28;20225;-75
2022/10/25 04:28:01;;;;;;;26.40;12.43;;;15.00;81.30;;;;;;5066597;28;20611;-75
2022/10/25 04:30:29;;;;;;;28.30;12.47;;;15.00;81.60;;;;;;5066401;28;20279;-75
2022/10/25 04:33:06;;;;;;;24.97;12.67;;;15.00;81.80;;;;;;5070066;28;20185;-75
2022/10/25 04:35:34;;;;;;;23.23;12.57;;;15.00;81.90;;;;;;5070229;28;20217;-75
2022/10/25 04:38:03;;;;;;;26.13;12.90;;;14.90;81.70;;;;;;5071564;28;20198;-76
2022/10/25 04:40:31;;;;;;;25.97;11.90;;;14.90;81.90;;;;;;5074039;28;20694;-75
2022/10/25 04:43:01;;;;;;;23.00;12.10;;;15.00;81.90;;;;;;5069376;28;20246;-75
2022/10/25 04:45:29;;;;;;;23.53;10.93;;;14.90;81.70;;;;;;5070720;28;20678;-75
2022/10/25 04:47:58;;;;;;;26.00;11.73;;;14.90;81.60;;;;;;5071531;28;20198;-76
2022/10/25 04:50:27;;;;;;;31.60;13.30;;;14.90;81.60;;;;;;5067279;28;20226;-76
2022/10/25 04:52:56;;;;;;;30.70;13.57;;;15.00;81.60;;;;;;5069689;28;20659;-79
2022/10/25 04:55:25;;;;;;;28.47;13.30;;;15.00;81.60;;;;;;5091385;28;20301;-75
2022/10/25 04:57:53;;;;;;;35.77;13.90;;;15.00;81.60;;;;;;5088405;28;20239;-75
2022/10/25 05:00:25;;;;;;;25.77;14.50;;;15.00;81.70;;;;;;5092956;28;20237;-75
2022/10/25 05:02:54;;;;;;;33.80;13.97;;;15.00;81.80;;;;;;5093091;28;20272;-76
2022/10/25 05:05:24;;;;;;;28.57;13.53;;;14.90;81.70;;;;;;5080918;28;20248;-77
2022/10/25 05:07:54;;;;;;;31.57;13.67;;;15.00;81.80;;;;;;5086723;28;20255;-76
2022/10/25 05:10:22;;;;;;;27.30;14.00;;;15.00;81.80;;;;;;5088668;28;20607;-75
2022/10/25 05:12:51;;;;;;;27.07;13.70;;;15.00;81.80;;;;;;5087761;28;20237;-76
2022/10/25 05:15:19;;;;;;;28.80;12.43;;;15.00;81.80;;;;;;5091229;28;20232;-75
2022/10/25 05:17:47;;;;;;;30.80;14.13;;;15.00;81.70;;;;;;5088570;28;20289;-75
2022/10/25 05:20:15;;;;;;;32.03;12.97;;;15.00;81.70;;;;;;5091799;28;20284;-76
2022/10/25 05:22:44;;;;;;;25.87;12.43;;;15.10;81.80;;;;;;5088761;28;20599;-75
2022/10/25 05:25:14;;;;;;;25.73;12.23;;;15.10;81.80;;;;;;5092560;28;20558;-75
2022/10/25 05:27:43;;;;;;;35.33;14.43;;;15.10;81.80;;;;;;5092953;28;20201;-75
2022/10/25 05:30:12;;;;;;;26.50;12.77;;;15.10;81.80;;;;;;5093878;28;20236;-76
2022/10/25 05:32:42;;;;;;;34.10;12.90;;;15.10;81.90;;;;;;5090654;28;20221;-77
2022/10/25 05:35:10;;;;;;;33.00;12.20;;;15.10;81.80;;;;;;5085900;28;20186;-75
2022/10/25 05:37:39;;;;;;;29.77;12.57;;;15.20;81.80;;;;;;5092203;28;20602;-75
2022/10/25 05:40:08;;;;;;;34.80;13.53;;;15.20;81.80;;;;;;5096230;28;20255;-76
2022/10/25 05:42:38;;;;;;;28.83;13.33;;;15.30;81.90;;;;;;5094441;28;20662;-75
2022/10/25 05:45:07;;;;;;;28.50;13.60;;;15.30;81.80;;;;;;5095725;28;20221;-75
2022/10/25 05:47:35;;;;;;;35.83;13.70;;;15.30;81.70;;;;;;5086718;28;20587;-76
2022/10/25 05:50:03;;;;;;;35.53;14.37;;;15.30;81.60;;;;;;5094774;28;20266;-76
2022/10/25 05:52:31;;;;;;;28.63;12.70;;;15.40;81.60;;;;;;5096723;28;21727;-74
2022/10/25 05:55:00;;;;;;;28.87;13.37;;;15.40;81.60;;;;;;5096654;28;20272;-76
2022/10/25 05:57:29;;;;;;;31.37;14.20;;;15.50;81.60;;;;;;5091749;28;20240;-75
2022/10/25 05:59:59;;;;;;;28.80;12.80;;;15.50;81.70;;;;;;5093823;28;20660;-76
2022/10/25 06:02:27;;;;;;;35.17;14.70;;;15.50;81.70;;;;;;5094053;28;20202;-76
2022/10/25 06:04:56;;;;;;;32.87;13.37;;;15.60;81.80;;;;;;5091332;28;20237;-76
2022/10/25 06:07:24;;;;;;;35.27;13.00;;;15.60;81.80;;;;;;5100318;28;20716;-75
2022/10/25 06:09:52;;;;;;;30.03;13.60;;;15.60;81.90;;;;;;5096501;28;20703;-76
2022/10/25 06:12:21;;;;;;;28.57;13.53;;;15.70;81.90;;;;;;5093547;28;20210;-75
2022/10/25 06:14:49;;;;;;;38.22;15.10;;;15.70;82.00;;;;;;5094713;28;20490;-78
2022/10/25 06:17:19;;;;;;;36.13;13.63;;;15.80;83.20;;;;;;5093663;28;20233;-76
2022/10/25 06:19:47;;;;;;;27.53;13.80;;;15.80;82.90;;;;;;5093700;28;20643;-75
2022/10/25 06:22:15;;;;;;;26.23;12.77;;;15.90;82.90;;;;;;5094855;28;20229;-75
2022/10/25 06:24:43;;;;;;;25.70;12.67;;;15.90;83.60;;;;;;5094655;28;20218;-75
2022/10/25 06:27:12;;;;;;;26.73;11.87;;;16.00;82.70;;;;;;5092505;28;20216;-76
2022/10/25 06:29:40;;;;;;;23.13;12.07;;;16.10;82.60;;;;;;5085008;28;20190;-77
2022/10/25 06:32:08;;;;;;;26.50;10.67;;;16.10;82.60;;;;;;5092326;28;20198;-76
2022/10/25 06:34:38;;;;;;;20.43;11.57;;;16.10;82.60;;;;;;5091150;28;20229;-77
2022/10/25 06:37:06;;;;;;;29.37;12.37;;;16.20;82.50;;;;;;5091151;28;20546;-75
2022/10/25 06:39:34;;;;;;;25.20;11.60;;;16.30;82.50;;;;;;5096896;28;20229;-75
2022/10/25 06:42:03;;;;;;;24.37;11.33;;;16.30;82.50;;;;;;5100762;28;20224;-75
2022/10/25 06:44:31;;;;;;;24.13;11.53;;;16.40;82.40;;;;;;5095663;28;20241;-76
2022/10/25 06:47:01;;;;;;;32.80;11.47;;;16.40;82.40;;;;;;5094490;28;20658;-76
2022/10/25 06:49:46;;;;;;;28.33;12.93;;;16.50;82.40;;;;;;5092372;28;20442;-76
2022/10/25 06:52:17;;;;;;;21.83;10.77;;;16.60;82.50;;;;;;5092302;28;20190;-77
2022/10/25 06:54:45;;;;;;;23.03;11.20;;;16.60;82.50;;;;;;5090989;28;20684;-76
2022/10/25 06:57:13;;;;;;;25.50;11.00;;;16.70;82.40;;;;;;5092812;28;20205;-76
2022/10/25 06:59:42;;;;;;;23.77;11.17;;;16.70;82.20;;;;;;5098985;28;20192;-76
2022/10/25 07:02:10;;;;;;;23.83;11.27;;;16.80;82.30;;;;;;5097049;28;20197;-78
2022/10/25 07:04:38;;;;;;;19.07;10.03;;;16.80;82.10;;;;;;5090062;28;20214;-77
2022/10/25 07:07:09;;;;;;;24.10;10.87;;;16.90;82.10;;;;;;5098168;28;20564;-75
2022/10/25 07:09:37;;;;;;;21.13;9.67;;;16.90;82.00;;;;;;5093459;28;20297;-76
2022/10/25 07:12:09;;;;;;;23.57;10.10;;;17.00;82.00;;;;;;5099264;28;20209;-77
2022/10/25 07:14:40;;;;;;;22.37;10.10;;;17.00;81.80;;;;;;5092234;28;20216;-75
2022/10/25 07:17:08;;;;;;;22.43;10.83;;;17.10;81.90;;;;;;5094967;28;20270;-78
2022/10/25 07:19:36;;;;;;;27.43;10.90;;;17.10;81.50;;;;;;5098683;28;20681;-76
2022/10/25 07:22:04;;;;;;;27.67;11.03;;;17.20;81.40;;;;;;5098878;28;20221;-76
2022/10/25 07:24:34;;;;;;;24.00;10.93;;;17.30;81.10;;;;;;5091403;28;21646;-75
2022/10/25 07:27:02;;;;;;;33.43;12.47;;;17.30;81.00;;;;;;5090733;28;20240;-74
2022/10/25 07:29:30;;;;;;;45.47;16.63;;;17.40;81.00;;;;;;5092668;28;20667;-75
2022/10/25 07:31:59;;;;;;;33.93;12.30;;;17.50;81.00;;;;;;5092801;28;20205;-75
2022/10/25 07:34:27;;;;;;;28.33;11.57;;;17.50;80.80;;;;;;5091030;28;20219;-74
2022/10/25 07:37:07;;;;;;;30.90;12.00;;;17.60;80.80;;;;;;5092588;28;20237;-75
2022/10/25 07:39:37;;;;;;;27.47;11.30;;;17.70;80.80;;;;;;5092759;28;20240;-75
2022/10/25 07:42:05;;;;;;;26.80;10.00;;;17.80;80.80;;;;;;5091986;28;20259;-75
2022/10/25 07:44:34;;;;;;;22.40;9.03;;;17.90;80.60;;;;;;5088887;28;20251;-74
2022/10/25 07:47:02;;;;;;;23.67;9.83;;;18.00;80.60;;;;;;5091341;28;20638;-76
2022/10/25 07:49:30;;;;;;;18.80;10.20;;;18.10;80.40;;;;;;5091262;28;20225;-76
2022/10/25 07:51:58;;;;;;;16.60;9.33;;;18.20;80.20;;;;;;5091990;28;20233;-75
2022/10/25 07:54:27;;;;;;;25.10;9.87;;;18.30;80.10;;;;;;5090682;28;20225;-76
2022/10/25 07:56:56;;;;;;;17.00;8.97;;;18.40;79.80;;;;;;5089851;28;20198;-74
2022/10/25 07:59:24;;;;;;;15.17;7.70;;;18.50;79.70;;;;;;5092161;28;20229;-75
2022/10/25 08:01:53;;;;;;;16.87;7.67;;;18.60;79.40;;;;;;5090475;28;20694;-75
2022/10/25 08:04:21;;;;;;;15.60;7.93;;;18.60;79.10;;;;;;5088550;28;20277;-75
2022/10/25 08:06:50;;;;;;;14.40;7.27;;;18.80;78.90;;;;;;5092407;28;20717;-75
2022/10/25 08:09:18;;;;;;;18.23;7.43;;;18.90;78.70;;;;;;5092570;28;20202;-75
2022/10/25 08:12:06;;;;;;;12.73;6.93;;;18.90;78.00;;;;;;5083278;28;20206;-74
2022/10/25 08:14:34;;;;;;;19.73;7.63;;;19.10;77.60;;;;;;5090572;28;20221;-76
2022/10/25 08:17:08;;;;;;;15.93;6.87;;;19.20;77.70;;;;;;5089999;28;20201;-74
2022/10/25 08:19:37;;;;;;;21.10;7.90;;;19.30;77.50;;;;;;5090468;28;20293;-77
2022/10/25 08:22:05;;;;;;;18.13;7.20;;;19.30;76.90;;;;;;5091357;28;20240;-76
2022/10/25 08:24:34;;;;;;;16.50;8.40;;;19.50;76.70;;;;;;5090009;28;20767;-76
2022/10/25 08:27:03;;;;;;;13.10;7.57;;;19.50;76.30;;;;;;5089979;28;20480;-76
2022/10/25 08:29:32;;;;;;;13.77;7.20;;;19.60;76.00;;;;;;5090983;28;20194;-75
2022/10/25 08:32:00;;;;;;;15.53;6.80;;;19.70;76.10;;;;;;5090565;28;20202;-76
2022/10/25 08:34:29;;;;;;;14.43;6.57;;;19.80;75.80;;;;;;5090346;28;20256;-77
2022/10/25 08:37:00;;;;;;;15.50;7.82;;;19.90;75.50;;;;;;5092613;28;20202;-75
2022/10/25 08:39:28;;;;;;;14.68;8.05;;;20.00;75.30;;;;;;5092033;28;20209;-76
2022/10/25 08:41:58;;;;;;;15.60;7.18;;;20.10;75.00;;;;;;5090136;28;20225;-76
2022/10/25 08:44:36;;;;;;;13.65;6.32;;;20.20;74.80;;;;;;5088025;28;20223;-74
2022/10/25 08:47:13;;;;;;;12.50;6.05;;;20.30;74.70;;;;;;5090539;28;20244;-75
2022/10/25 08:49:52;;;;;;;11.20;5.70;;;20.40;74.70;;;;;;5091170;28;20229;-76
2022/10/25 08:52:27;;;;;;;15.27;6.20;;;20.50;74.60;;;;;;5091543;28;20257;-76
2022/10/25 08:54:57;;;;;;;10.15;5.53;;;20.50;73.90;;;;;;5090543;28;20233;-75
2022/10/25 08:57:34;;;;;;;12.52;5.95;;;20.70;73.90;;;;;;5090509;28;20593;-76
2022/10/25 09:00:09;;;;;;;10.32;5.70;;;20.70;73.30;;;;;;5091034;28;20242;-76
2022/10/25 09:02:42;;;;;;;12.60;5.35;;;20.80;73.30;;;;;;5086712;28;20225;-75
2022/10/25 09:05:16;;;;;;;14.00;4.95;;;20.90;73.40;;;;;;5086262;28;20206;-76
2022/10/25 09:08:03;;;;;;;12.63;4.53;;;21.00;72.60;;;;;;5090655;28;20247;-76
2022/10/25 09:10:44;;;;;;;16.42;5.10;;;21.10;72.30;;;;;;5089025;28;20672;-76
2022/10/25 09:13:26;;;;;;;13.55;4.97;;;21.20;71.70;;;;;;5085321;28;20262;-75
2022/10/25 09:16:06;;;;;;;19.77;5.40;;;21.30;71.70;;;;;;5094562;28;20268;-77
2022/10/25 09:18:40;;;;;;;7.53;4.50;;;21.40;71.50;;;;;;5092372;28;20659;-77
2022/10/25 09:21:17;;;;;;;13.52;5.10;;;21.50;71.50;;;;;;5091969;28;20215;-77
2022/10/25 09:24:00;;;;;;;9.20;4.22;;;21.60;70.50;;;;;;5093026;28;20646;-77
2022/10/25 09:26:42;;;;;;;15.73;5.20;;;21.70;70.50;;;;;;5096004;28;20249;-77
2022/10/25 09:29:23;;;;;;;8.70;4.40;;;21.80;69.50;;;;;;5095402;28;20278;-76
2022/10/25 09:31:57;;;;;;;9.07;4.63;;;21.90;68.90;;;;;;5093539;28;20197;-76
2022/10/25 09:34:30;;;;;;;11.90;4.70;;;22.00;68.70;;;;;;5089658;28;20741;-76
2022/10/25 09:37:04;;;;;;;12.93;4.05;;;22.10;69.00;;;;;;5088670;28;20193;-75
2022/10/25 09:39:37;;;;;;;8.30;4.20;;;22.20;69.00;;;;;;5100881;28;20217;-76
2022/10/25 09:42:14;;;;;;;10.30;4.43;;;22.30;68.30;;;;;;5090639;28;20193;-77
2022/10/25 09:44:47;;;;;;;10.93;4.53;;;22.30;67.80;;;;;;5089653;28;20232;-76
2022/10/25 09:47:28;;;;;;;8.75;4.57;;;22.50;68.00;;;;;;5089749;28;20732;-77
2022/10/25 09:50:01;;;;;;;11.13;4.47;;;22.50;66.70;;;;;;5090825;28;20677;-76
2022/10/25 09:52:40;;;;;;;11.30;4.63;;;22.70;66.70;;;;;;5081920;28;20497;-77
2022/10/25 09:55:35;;;;;;;14.18;4.60;;;22.80;66.30;;;;;;5090458;28;20752;-77
2022/10/25 09:58:03;;;;;;;6.90;3.95;;;22.90;65.50;;;;;;5090727;28;20194;-76
2022/10/25 10:00:37;;;;;;;11.82;4.30;;;22.90;65.40;;;;;;5095351;28;20229;-75
2022/10/25 10:03:09;;;;;;;9.27;4.20;;;23.00;64.80;;;;;;5103490;28;20650;-78
2022/10/25 10:05:39;;;;;;;11.50;3.60;;;23.00;64.30;;;;;;5089036;28;20251;-77
2022/10/25 10:08:09;;;;;;;9.15;3.60;;;23.00;64.70;;;;;;5094774;28;20650;-77
2022/10/25 10:10:38;;;;;;;10.35;3.88;;;23.00;63.80;;;;;;5099912;28;20225;-77
2022/10/25 10:13:14;;;;;;;10.15;3.47;;;23.00;63.80;;;;;;5093130;28;20252;-77
2022/10/25 10:15:51;;;;;;;10.65;3.47;;;23.10;63.70;;;;;;5088886;28;20229;-76
2022/10/25 10:18:29;;;;;;;8.65;3.72;;;23.10;64.10;;;;;;5087424;28;20276;-77
2022/10/25 10:21:05;;;;;;;9.77;3.30;;;23.10;63.40;;;;;;5091605;28;20225;-76
2022/10/25 10:23:37;;;;;;;11.15;3.50;;;23.20;63.50;;;;;;5082985;28;20666;-77
2022/10/25 10:26:20;;;;;;;6.20;2.92;;;23.20;63.30;;;;;;5098752;28;20274;-77
2022/10/25 10:28:51;;;;;;;9.13;2.47;;;23.20;63.10;;;;;;5094116;28;20196;-78
2022/10/25 10:31:20;;;;;;;10.18;3.13;;;23.20;62.70;;;;;;5089158;28;20278;-78
2022/10/25 10:33:51;;;;;;;5.72;3.03;;;23.30;62.80;;;;;;5087660;28;20202;-78
2022/10/25 10:36:26;;;;;;;5.93;3.20;;;23.30;62.10;;;;;;5089002;28;20190;-77
2022/10/25 10:38:55;;;;;;;7.75;2.75;;;23.30;62.10;;;;;;5091043;28;20185;-78
2022/10/25 10:41:26;;;;;;;10.30;3.03;;;23.30;62.00;;;;;;5093365;28;20255;-78
2022/10/25 10:44:10;;;;;;;8.73;3.50;;;23.40;61.80;;;;;;5089825;28;20210;-79
2022/10/25 10:46:45;;;;;;;5.50;3.20;;;23.40;61.80;;;;;;5091398;28;20245;-76
2022/10/25 10:49:16;;;;;;;8.60;3.28;;;23.50;61.90;;;;;;5091399;28;20275;-81
2022/10/25 10:51:45;;;;;;;9.90;2.80;;;23.40;61.30;;;;;;5095635;28;20251;-78
2022/10/25 10:54:21;;;;;;;14.02;3.25;;;23.60;61.60;;;;;;5096437;28;20260;-78
2022/10/25 10:56:55;;;;;;;8.85;2.85;;;23.60;61.60;;;;;;5093363;28;20234;-80
2022/10/25 10:59:37;;;;;;;11.48;3.33;;;23.60;60.80;;;;;;5092048;28;20194;-77
2022/10/25 11:02:21;;;;;;;11.00;3.00;;;23.70;60.90;;;;;;5087912;28;20225;-77
2022/10/25 11:04:53;;;;;;;6.93;2.92;;;23.70;61.20;;;;;;5091705;28;20186;-77
2022/10/25 11:07:29;;;;;;;10.48;3.05;;;23.80;60.70;;;;;;5093945;28;20220;-79
2022/10/25 11:10:26;;;;;;;6.72;3.47;;;23.80;60.40;;;;;;5092854;28;20654;-82
2022/10/25 11:13:15;;;;;;;8.93;3.50;;;23.90;59.80;;;;;;5082780;28;20723;-77
2022/10/25 11:16:22;;;;;;;13.27;4.07;;;24.00;60.00;;;;;;5090439;28;20214;-77
2022/10/25 11:19:07;;;;;;;13.00;3.70;;;24.00;59.60;;;;;;5091060;28;20197;-79
2022/10/25 11:21:56;;;;;;;15.55;3.90;;;24.10;59.00;;;;;;5090420;28;20744;-79
2022/10/25 11:24:32;;;;;;;9.40;4.10;;;24.10;59.00;;;;;;5092788;28;20218;-76
2022/10/25 11:27:08;;;;;;;12.65;4.15;;;24.20;59.10;;;;;;5088867;28;20300;-80
2022/10/25 11:29:53;;;;;;;10.13;3.92;;;24.20;58.90;;;;;;5092364;28;20189;-77
2022/10/25 11:32:40;;;;;;;18.15;4.70;;;24.30;58.90;;;;;;5088305;28;20227;-78
2022/10/25 11:35:26;;;;;;;9.32;4.05;;;24.40;58.60;;;;;;5086510;28;20194;-79
2022/10/25 11:38:05;;;;;;;9.65;4.28;;;24.40;58.30;;;;;;5091082;28;20214;-78
2022/10/25 11:40:39;;;;;;;12.75;4.00;;;24.50;58.00;;;;;;5091061;28;20719;-76
2022/10/25 11:43:37;;;;;;;10.45;4.53;;;24.60;58.10;;;;;;5086234;28;20703;-77
2022/10/25 11:46:10;;;;;;;8.18;3.60;;;24.60;57.80;;;;;;5091389;28;20197;-76
2022/10/25 11:48:59;;;;;;;9.35;3.75;;;24.60;57.80;;;;;;5090227;28;20219;-77
2022/10/25 11:51:37;;;;;;;14.25;4.07;;;24.70;57.90;;;;;;5095309;28;20482;-76
2022/10/25 11:54:21;;;;;;;10.63;3.50;;;24.80;57.40;;;;;;5088844;28;20256;-79
2022/10/25 11:57:02;;;;;;;9.48;3.72;;;24.80;57.20;;;;;;5090170;28;20185;-75
2022/10/25 11:59:41;;;;;;;10.65;3.47;;;24.90;57.60;;;;;;5084531;28;20234;-76
2022/10/25 12:02:30;;;;;;;15.43;3.65;;;24.90;57.00;;;;;;5090346;28;20201;-80
2022/10/25 12:05:22;;;;;;;10.40;4.03;;;24.90;56.90;;;;;;5092285;28;20193;-77
2022/10/25 12:07:56;;;;;;;12.05;3.55;;;25.00;56.80;;;;;;5091487;28;20228;-76
2022/10/25 12:10:35;;;;;;;9.45;3.55;;;25.00;56.70;;;;;;5092121;28;20224;-77
2022/10/25 12:13:11;;;;;;;12.48;4.10;;;25.00;56.90;;;;;;5091364;28;20236;-78
2022/10/25 12:15:41;;;;;;;18.65;4.22;;;25.10;56.50;;;;;;5089825;28;20197;-78
2022/10/25 12:18:14;;;;;;;24.58;4.22;;;25.10;56.80;;;;;;5091260;28;20254;-78
2022/10/25 12:20:45;;;;;;;12.95;3.42;;;25.10;56.20;;;;;;5106324;28;20262;-79
2022/10/25 12:23:17;;;;;;;18.33;4.28;;;25.20;56.10;;;;;;5098056;28;20190;-80
2022/10/25 12:25:50;;;;;;;16.88;3.78;;;25.20;55.90;;;;;;5097729;28;20225;-78
2022/10/25 12:28:25;;;;;;;14.60;3.92;;;25.20;56.10;;;;;;5101301;28;20202;-78
2022/10/25 12:30:59;;;;;;;9.15;3.67;;;25.30;56.40;;;;;;5091820;28;20257;-79
2022/10/25 12:33:37;;;;;;;9.98;3.60;;;25.40;55.90;;;;;;5090049;28;20193;-79
2022/10/25 12:36:11;;;;;;;11.68;3.75;;;25.40;55.70;;;;;;5056684;28;20567;-79
2022/10/25 12:38:41;;;;;;;17.42;3.53;;;25.40;55.60;;;;;;5093290;28;20239;-79
2022/10/25 12:41:18;;;;;;;11.25;3.35;;;25.40;55.40;;;;;;5089792;28;20674;-77
2022/10/25 12:43:59;;;;;;;13.77;3.85;;;25.40;55.30;;;;;;5089796;28;20899;-78
2022/10/25 12:46:43;;;;;;;13.07;3.67;;;25.50;55.40;;;;;;5090210;28;20654;-78
2022/10/25 12:49:38;;;;;;;10.15;3.88;;;25.50;55.80;;;;;;5089625;28;20189;-81
2022/10/25 12:52:21;;;;;;;11.90;4.60;;;25.40;55.30;;;;;;5090292;28;20228;-77
2022/10/25 12:55:10;;;;;;;15.00;3.83;;;25.50;55.50;;;;;;5096892;28;20594;-77
2022/10/25 12:57:52;;;;;;;16.45;4.07;;;25.50;55.50;;;;;;5091182;28;20235;-81
2022/10/25 13:00:22;;;;;;;14.45;4.00;;;25.60;55.50;;;;;;5074226;28;20197;-78
2022/10/25 13:03:18;;;;;;;14.30;3.75;;;25.60;55.50;;;;;;5098183;28;20201;-77